< < Back
Terminal Aerodrome Forecast


Current Version              Previous Versions:   1  2  3  4  5  6  7  8  9  

Terminal Aerodrome Forecast

408
FTUS42 KGSP 171736
TAFAVL
TAF
KAVL 171736Z 1718/1818 34010G18KT P6SM FEW025 SCT250
     FM180000 33006KT P6SM BKN150=

Latest METAR

415
SAUS70 KWBC 181300 RRH
MTRAVL
METAR KAVL 181254Z 35012KT 10SM OVC095 02/M02 A3016 RMK AO2 SLP217
T00221022


USA.gov is the U.S. government's official web portal to all federal, state and local government web resources and services.